createdAt,value
2022-11-10T00:00:29.963Z,11.88
2022-11-10T00:01:30.694Z,11.87
2022-11-10T00:02:29.256Z,11.88
2022-11-10T00:03:29.332Z,11.87
2022-11-10T00:04:29.983Z,11.87
2022-11-10T00:05:29.207Z,11.87
2022-11-10T00:06:29.253Z,11.88
2022-11-10T00:07:29.872Z,11.89
2022-11-10T00:08:29.859Z,11.87
2022-11-10T00:09:29.841Z,11.86
2022-11-10T00:10:29.134Z,11.86
2022-11-10T00:11:29.148Z,11.85
2022-11-10T00:12:29.827Z,11.84
2022-11-10T00:13:30.129Z,11.84
2022-11-10T00:14:29.787Z,11.85
2022-11-10T00:15:29.837Z,11.84
2022-11-10T00:16:29.769Z,11.83
2022-11-10T00:17:29.100Z,11.83
2022-11-10T00:18:30.710Z,11.82
2022-11-10T00:19:29.050Z,11.83
2022-11-10T00:20:29.059Z,11.82
2022-11-10T00:21:29.085Z,11.81
2022-11-10T00:22:29.720Z,11.81
2022-11-10T00:23:29.009Z,11.80
2022-11-10T00:24:29.018Z,11.80
2022-11-10T00:25:30.951Z,11.80
2022-11-10T00:26:28.982Z,11.79
2022-11-10T00:27:29.651Z,11.79
2022-11-10T00:28:28.951Z,11.78
2022-11-10T00:29:28.960Z,11.78
2022-11-10T00:30:29.625Z,11.78
2022-11-10T00:31:29.778Z,11.79
2022-11-10T00:32:29.608Z,11.76
2022-11-10T00:33:29.756Z,11.76
2022-11-10T00:34:29.726Z,11.76
2022-11-10T00:35:28.892Z,11.76
2022-11-10T00:36:28.875Z,11.76
2022-11-10T00:37:28.883Z,11.74
2022-11-10T00:38:29.537Z,11.74
2022-11-10T00:39:28.960Z,11.74
2022-11-10T00:40:29.707Z,11.74
2022-11-10T00:41:29.552Z,11.74
2022-11-10T00:42:29.504Z,11.73
2022-11-10T00:43:29.908Z,11.73
2022-11-10T00:44:29.474Z,11.73
2022-11-10T00:45:29.500Z,11.72
2022-11-10T00:46:29.705Z,11.71
2022-11-10T00:47:28.767Z,11.71
2022-11-10T00:48:29.418Z,11.70
2022-11-10T00:49:29.422Z,11.69
2022-11-10T00:50:29.406Z,11.69
2022-11-10T00:51:29.373Z,11.69
2022-11-10T00:52:29.374Z,11.68
2022-11-10T00:53:29.365Z,11.67
2022-11-10T00:54:28.676Z,11.67
2022-11-10T00:55:29.346Z,11.66
2022-11-10T00:56:29.428Z,11.67
2022-11-10T00:57:29.329Z,11.66
2022-11-10T00:58:29.973Z,11.65
2022-11-10T00:59:29.307Z,11.64
2022-11-10T01:00:29.302Z,11.64
2022-11-10T01:01:28.631Z,11.63
2022-11-10T01:02:29.584Z,11.63
2022-11-10T01:03:29.269Z,11.62
2022-11-10T01:04:28.580Z,11.61
2022-11-10T01:05:29.493Z,11.61
2022-11-10T01:06:28.852Z,11.59
2022-11-10T01:07:29.518Z,11.59
2022-11-10T01:08:28.560Z,11.59
2022-11-10T01:09:29.201Z,11.58
2022-11-10T01:10:28.531Z,11.58
2022-11-10T01:11:29.204Z,11.57
2022-11-10T01:12:29.193Z,11.56
2022-11-10T01:13:28.641Z,11.56
2022-11-10T01:14:30.474Z,11.55
2022-11-10T01:15:28.466Z,11.54
2022-11-10T01:16:28.460Z,11.54
2022-11-10T01:17:28.491Z,11.53
2022-11-10T01:18:29.117Z,11.52
2022-11-10T01:19:28.522Z,11.52
2022-11-10T01:20:29.093Z,11.51
2022-11-10T01:21:28.403Z,11.49
2022-11-10T01:22:28.441Z,11.49
2022-11-10T01:23:29.051Z,11.48
2022-11-10T01:24:29.820Z,11.48
2022-11-10T01:25:29.024Z,11.47
2022-11-10T01:26:28.335Z,11.46
2022-11-10T01:27:29.014Z,11.46
2022-11-10T01:28:28.995Z,11.45
2022-11-10T01:29:28.966Z,11.44
2022-11-10T01:30:28.967Z,11.43
2022-11-10T01:31:28.348Z,11.43
2022-11-10T01:32:28.262Z,11.43
2022-11-10T01:33:28.937Z,11.42
2022-11-10T01:34:28.924Z,11.42
2022-11-10T01:35:28.905Z,11.41
2022-11-10T01:36:28.215Z,11.41
2022-11-10T01:37:28.351Z,11.42
2022-11-10T01:38:28.887Z,11.42
2022-11-10T01:39:28.856Z,11.43
2022-11-10T01:40:28.911Z,11.42
2022-11-10T01:41:28.188Z,11.42
2022-11-10T01:42:28.833Z,11.42
2022-11-10T01:43:28.275Z,11.42
2022-11-10T01:44:28.158Z,11.41
2022-11-10T01:45:28.239Z,11.41
2022-11-10T01:46:28.778Z,11.41
2022-11-10T01:47:28.106Z,11.41
2022-11-10T01:48:28.110Z,11.41
2022-11-10T01:49:28.167Z,11.39
2022-11-10T01:50:28.738Z,11.39
2022-11-10T01:51:28.544Z,11.38
2022-11-10T01:52:28.080Z,11.38
2022-11-10T01:53:28.122Z,11.38
2022-11-10T01:54:28.027Z,11.37
2022-11-10T01:55:28.263Z,11.37
2022-11-10T01:56:28.025Z,11.37
2022-11-10T01:57:27.982Z,11.37
2022-11-10T01:58:28.654Z,11.36
2022-11-10T01:59:28.640Z,11.36
2022-11-10T02:00:28.687Z,11.35
2022-11-10T02:01:28.226Z,11.34
2022-11-10T02:02:27.942Z,11.35
2022-11-10T02:03:28.603Z,11.37
2022-11-10T02:04:28.583Z,11.35
2022-11-10T02:05:27.978Z,11.34
2022-11-10T02:06:28.563Z,11.34
2022-11-10T02:07:28.623Z,11.33
2022-11-10T02:08:27.912Z,11.33
2022-11-10T02:09:28.535Z,11.33
2022-11-10T02:10:28.514Z,11.33
2022-11-10T02:11:28.785Z,11.33
2022-11-10T02:12:28.796Z,11.33
2022-11-10T02:13:28.475Z,11.32
2022-11-10T02:14:28.503Z,11.32
2022-11-10T02:15:27.955Z,11.32
2022-11-10T02:16:29.815Z,11.32
2022-11-10T02:17:27.784Z,11.32
2022-11-10T02:18:28.086Z,11.32
2022-11-10T02:19:28.415Z,11.31
2022-11-10T02:20:28.409Z,11.32
2022-11-10T02:21:28.391Z,11.31
2022-11-10T02:22:28.385Z,11.32
2022-11-10T02:23:28.405Z,11.32
2022-11-10T02:24:27.717Z,11.32
2022-11-10T02:25:28.356Z,11.33
2022-11-10T02:26:27.740Z,11.33
2022-11-10T02:27:28.078Z,11.33
2022-11-10T02:28:29.647Z,11.33
2022-11-10T02:29:27.697Z,11.33
2022-11-10T02:30:28.747Z,11.33
2022-11-10T02:31:27.627Z,11.33
2022-11-10T02:32:27.608Z,11.34
2022-11-10T02:33:29.547Z,11.34
2022-11-10T02:34:27.598Z,11.34
2022-11-10T02:35:28.249Z,11.33
2022-11-10T02:36:28.242Z,11.33
2022-11-10T02:37:28.235Z,11.34
2022-11-10T02:38:28.217Z,11.32
2022-11-10T02:39:28.206Z,11.32
2022-11-10T02:40:27.590Z,11.32
2022-11-10T02:41:28.179Z,11.31
2022-11-10T02:42:27.617Z,11.31
2022-11-10T02:43:28.149Z,11.31
2022-11-10T02:44:28.139Z,11.31
2022-11-10T02:45:27.489Z,11.31
2022-11-10T02:46:27.499Z,11.31
2022-11-10T02:47:28.113Z,11.31
2022-11-10T02:48:27.526Z,11.31
2022-11-10T02:49:28.154Z,11.32
2022-11-10T02:50:27.552Z,11.32
2022-11-10T02:51:27.708Z,11.33
2022-11-10T02:52:28.331Z,11.33
2022-11-10T02:53:28.124Z,11.32
2022-11-10T02:54:27.480Z,11.34
2022-11-10T02:55:28.034Z,11.35
2022-11-10T02:56:28.024Z,11.34
2022-11-10T02:57:27.978Z,11.34
2022-11-10T02:58:27.577Z,11.35
2022-11-10T02:59:27.352Z,11.37
2022-11-10T03:00:27.420Z,11.37
2022-11-10T03:01:27.989Z,11.38
2022-11-10T03:02:31.991Z,11.39
2022-11-10T03:03:28.949Z,11.41
2022-11-10T03:04:28.214Z,11.42
2022-11-10T03:05:27.285Z,11.44
2022-11-10T03:06:27.915Z,11.44
2022-11-10T03:07:28.174Z,11.46
2022-11-10T03:08:27.874Z,11.47
2022-11-10T03:09:27.864Z,11.48
2022-11-10T03:10:28.615Z,11.49
2022-11-10T03:11:32.092Z,11.49
2022-11-10T03:12:28.266Z,11.51
2022-11-10T03:13:40.301Z,11.51
2022-11-10T03:14:30.079Z,11.53
2022-11-10T03:15:27.116Z,11.55
2022-11-10T03:16:27.806Z,11.56
2022-11-10T03:17:27.785Z,11.57
2022-11-10T03:18:28.136Z,11.58
2022-11-10T03:19:27.098Z,11.58
2022-11-10T03:20:27.753Z,11.59
2022-11-10T03:21:27.063Z,11.60
2022-11-10T03:22:27.731Z,11.60
2022-11-10T03:23:27.707Z,11.61
2022-11-10T03:24:28.081Z,11.62
2022-11-10T03:25:27.019Z,11.63
2022-11-10T03:26:27.013Z,11.64
2022-11-10T03:27:27.020Z,11.65
2022-11-10T03:28:27.659Z,11.66
2022-11-10T03:29:27.659Z,11.66
2022-11-10T03:30:27.632Z,11.67
2022-11-10T03:31:27.632Z,11.68
2022-11-10T03:32:26.973Z,11.69
2022-11-10T03:33:27.603Z,11.70
2022-11-10T03:34:31.701Z,11.71
2022-11-10T03:35:26.904Z,11.72
2022-11-10T03:36:26.920Z,11.73
2022-11-10T03:37:26.879Z,11.74
2022-11-10T03:38:26.932Z,11.74
2022-11-10T03:39:27.531Z,11.75
2022-11-10T03:40:27.679Z,11.77
2022-11-10T03:41:27.686Z,11.77
2022-11-10T03:42:26.944Z,11.78
2022-11-10T03:43:27.668Z,11.78
2022-11-10T03:44:28.128Z,11.78
2022-11-10T03:45:27.480Z,11.79
2022-11-10T03:46:27.463Z,11.79
2022-11-10T03:47:26.773Z,11.78
2022-11-10T03:48:26.784Z,11.78
2022-11-10T03:49:26.745Z,11.78
2022-11-10T03:50:27.414Z,11.79
2022-11-10T03:51:27.408Z,11.79
2022-11-10T03:52:26.703Z,11.79
2022-11-10T03:53:26.695Z,11.79
2022-11-10T03:54:27.484Z,11.79
2022-11-10T03:55:27.578Z,11.78
2022-11-10T03:56:27.356Z,11.79
2022-11-10T03:57:27.347Z,11.80
2022-11-10T03:58:26.647Z,11.80
2022-11-10T03:59:27.318Z,11.80
2022-11-10T04:00:26.787Z,11.81
2022-11-10T04:01:27.356Z,11.81
2022-11-10T04:02:26.596Z,11.82
2022-11-10T04:03:27.270Z,11.81
2022-11-10T04:04:26.577Z,11.83
2022-11-10T04:05:26.557Z,11.83
2022-11-10T04:06:26.571Z,11.83
2022-11-10T04:07:27.992Z,11.84
2022-11-10T04:08:27.219Z,11.84
2022-11-10T04:09:27.355Z,11.85
2022-11-10T04:10:27.218Z,11.85
2022-11-10T04:11:27.374Z,11.84
2022-11-10T04:12:27.183Z,11.85
2022-11-10T04:13:26.468Z,11.85
2022-11-10T04:14:27.165Z,11.84
2022-11-10T04:15:27.663Z,11.84
2022-11-10T04:16:26.463Z,11.84
2022-11-10T04:17:26.563Z,11.84
2022-11-10T04:18:26.434Z,11.84
2022-11-10T04:19:27.091Z,11.84
2022-11-10T04:20:26.491Z,11.83
2022-11-10T04:21:26.576Z,11.82
2022-11-10T04:22:27.203Z,11.82
2022-11-10T04:23:27.076Z,11.82
2022-11-10T04:24:27.040Z,11.82
2022-11-10T04:25:26.384Z,11.82
2022-11-10T04:26:27.024Z,11.82
2022-11-10T04:27:26.331Z,11.82
2022-11-10T04:28:26.302Z,11.83
2022-11-10T04:29:26.343Z,11.83
2022-11-10T04:30:26.973Z,11.84
2022-11-10T04:31:26.975Z,11.85
2022-11-10T04:32:26.264Z,11.87
2022-11-10T04:33:26.266Z,11.88
2022-11-10T04:34:26.606Z,11.90
2022-11-10T04:35:27.705Z,11.92
2022-11-10T04:36:26.218Z,11.95
2022-11-10T04:37:26.905Z,11.98
2022-11-10T04:38:26.193Z,11.99
2022-11-10T04:39:26.898Z,12.01
2022-11-10T04:40:26.316Z,12.04
2022-11-10T04:41:26.869Z,12.05
2022-11-10T04:42:26.161Z,12.08
2022-11-10T04:43:26.838Z,12.11
2022-11-10T04:44:26.136Z,12.13
2022-11-10T04:45:27.585Z,12.14
2022-11-10T04:46:26.148Z,12.16
2022-11-10T04:47:26.159Z,12.17
2022-11-10T04:48:26.106Z,12.19
2022-11-10T04:49:26.087Z,12.20
2022-11-10T04:50:26.759Z,12.21
2022-11-10T04:51:26.096Z,12.21
2022-11-10T04:52:26.801Z,12.22
2022-11-10T04:53:26.724Z,12.22
2022-11-10T04:54:26.715Z,12.22
2022-11-10T04:55:26.044Z,12.21
2022-11-10T04:56:26.707Z,12.20
2022-11-10T04:57:25.998Z,12.20
2022-11-10T04:58:26.204Z,12.19
2022-11-10T04:59:28.075Z,12.17
2022-11-10T05:00:26.788Z,12.17
2022-11-10T05:01:26.108Z,12.16
2022-11-10T05:02:26.628Z,12.14
2022-11-10T05:03:26.636Z,12.13
2022-11-10T05:04:26.590Z,12.12
2022-11-10T05:05:26.628Z,12.11
2022-11-10T05:06:25.904Z,12.09
2022-11-10T05:07:25.934Z,12.08
2022-11-10T05:08:25.890Z,12.07
2022-11-10T05:09:26.551Z,12.05
2022-11-10T05:10:26.609Z,12.03
2022-11-10T05:11:25.859Z,12.03
2022-11-10T05:12:26.518Z,12.02
2022-11-10T05:13:26.497Z,12.01
2022-11-10T05:14:26.494Z,11.99
2022-11-10T05:15:25.803Z,11.98
2022-11-10T05:16:26.574Z,11.96
2022-11-10T05:17:25.773Z,11.95
2022-11-10T05:18:25.788Z,11.95
2022-11-10T05:19:25.803Z,11.92
2022-11-10T05:20:25.752Z,11.91
2022-11-10T05:21:26.416Z,11.90
2022-11-10T05:22:25.786Z,11.88
2022-11-10T05:23:26.394Z,11.87
2022-11-10T05:24:25.736Z,11.85
2022-11-10T05:25:26.389Z,11.83
2022-11-10T05:26:26.361Z,11.83
2022-11-10T05:27:26.355Z,11.81
2022-11-10T05:28:26.335Z,11.80
2022-11-10T05:29:26.333Z,11.79
2022-11-10T05:30:25.678Z,11.78
2022-11-10T05:31:25.637Z,11.78
2022-11-10T05:32:26.286Z,11.76
2022-11-10T05:33:25.905Z,11.76
2022-11-10T05:34:25.689Z,11.75
2022-11-10T05:35:26.257Z,11.76
2022-11-10T05:36:25.569Z,11.76
2022-11-10T05:37:25.580Z,11.75
2022-11-10T05:38:25.537Z,11.76
2022-11-10T05:39:26.222Z,11.75
2022-11-10T05:40:26.210Z,11.76
2022-11-10T05:41:25.517Z,11.76
2022-11-10T05:42:26.198Z,11.76
2022-11-10T05:43:26.559Z,11.76
2022-11-10T05:44:25.499Z,11.76
2022-11-10T05:45:26.173Z,11.76
2022-11-10T05:46:26.130Z,11.77
2022-11-10T05:47:26.144Z,11.77
2022-11-10T05:48:25.441Z,11.77
2022-11-10T05:49:25.476Z,11.75
2022-11-10T05:50:25.455Z,11.74
2022-11-10T05:51:26.092Z,11.72
2022-11-10T05:52:25.416Z,11.73
2022-11-10T05:53:26.183Z,11.71
2022-11-10T05:54:25.402Z,11.70
2022-11-10T05:55:25.426Z,11.68
2022-11-10T05:56:25.380Z,11.67
2022-11-10T05:57:25.325Z,11.65
2022-11-10T05:58:25.423Z,11.64
2022-11-10T05:59:25.314Z,11.63
2022-11-10T06:00:25.312Z,11.62
2022-11-10T06:01:25.983Z,11.61
2022-11-10T06:02:25.968Z,11.60
2022-11-10T06:03:26.444Z,11.61
2022-11-10T06:04:25.353Z,11.59
2022-11-10T06:05:30.847Z,11.60
2022-11-10T06:06:26.926Z,11.61
2022-11-10T06:07:25.916Z,11.61
2022-11-10T06:08:25.896Z,11.62
2022-11-10T06:09:25.901Z,11.63
2022-11-10T06:10:25.244Z,11.65
2022-11-10T06:11:25.225Z,11.66
2022-11-10T06:12:25.713Z,11.67
2022-11-10T06:13:26.038Z,11.68
2022-11-10T06:14:25.166Z,11.69
2022-11-10T06:15:25.873Z,11.70
2022-11-10T06:16:25.155Z,11.70
2022-11-10T06:17:25.121Z,11.71
2022-11-10T06:18:25.798Z,11.71
2022-11-10T06:19:26.516Z,11.72
2022-11-10T06:20:25.090Z,11.73
2022-11-10T06:21:25.111Z,11.73
2022-11-10T06:22:25.167Z,11.74
2022-11-10T06:23:26.015Z,11.74
2022-11-10T06:24:25.035Z,11.75
2022-11-10T06:25:25.709Z,11.75
2022-11-10T06:26:25.704Z,11.75
2022-11-10T06:27:25.020Z,11.75
2022-11-10T06:28:25.706Z,11.76
2022-11-10T06:29:26.997Z,11.76
2022-11-10T06:30:24.991Z,11.77
2022-11-10T06:31:25.657Z,11.77
2022-11-10T06:32:24.949Z,11.76
2022-11-10T06:33:25.219Z,11.76
2022-11-10T06:34:25.609Z,11.75
2022-11-10T06:35:25.601Z,11.74
2022-11-10T06:36:25.590Z,11.74
2022-11-10T06:37:25.580Z,11.73
2022-11-10T06:38:25.563Z,11.71
2022-11-10T06:39:24.891Z,11.69
2022-11-10T06:40:24.981Z,11.68
2022-11-10T06:41:25.648Z,11.67
2022-11-10T06:42:24.841Z,11.65
2022-11-10T06:43:25.610Z,11.64
2022-11-10T06:44:24.865Z,11.63
2022-11-10T06:45:24.803Z,11.62
2022-11-10T06:46:24.934Z,11.61
2022-11-10T06:47:25.499Z,11.60
2022-11-10T06:48:25.471Z,11.60
2022-11-10T06:49:25.454Z,11.59
2022-11-10T06:50:25.440Z,11.59
2022-11-10T06:51:24.734Z,11.58
2022-11-10T06:52:25.806Z,11.59
2022-11-10T06:53:27.203Z,11.59
2022-11-10T06:54:25.393Z,11.60
2022-11-10T06:55:24.694Z,11.62
2022-11-10T06:56:24.739Z,11.62
2022-11-10T06:57:25.365Z,11.64
2022-11-10T06:58:25.504Z,11.65
2022-11-10T06:59:25.339Z,11.68
2022-11-10T07:00:24.637Z,11.70
2022-11-10T07:01:24.630Z,11.74
2022-11-10T07:02:24.661Z,11.79
2022-11-10T07:03:25.461Z,11.83
2022-11-10T07:04:25.280Z,11.87
2022-11-10T07:05:25.282Z,11.90
2022-11-10T07:06:24.571Z,11.94
2022-11-10T07:07:24.598Z,11.99
2022-11-10T07:08:25.247Z,12.03
2022-11-10T07:09:25.227Z,12.09
2022-11-10T07:10:25.286Z,12.14
2022-11-10T07:11:24.508Z,12.19
2022-11-10T07:12:24.508Z,12.23
2022-11-10T07:13:25.449Z,12.26
2022-11-10T07:14:24.531Z,12.28
2022-11-10T07:15:25.158Z,12.28
2022-11-10T07:16:24.767Z,12.27
2022-11-10T07:17:24.453Z,12.26
2022-11-10T07:18:25.129Z,12.25
2022-11-10T07:19:25.115Z,12.25
2022-11-10T07:20:24.437Z,12.25
2022-11-10T07:21:25.118Z,12.24
2022-11-10T07:22:25.082Z,12.24
2022-11-10T07:23:24.753Z,12.22
2022-11-10T07:24:24.391Z,12.21
2022-11-10T07:25:24.366Z,12.19
2022-11-10T07:26:25.044Z,12.19
2022-11-10T07:27:25.030Z,12.18
2022-11-10T07:28:28.353Z,12.18
2022-11-10T07:29:25.013Z,12.20
2022-11-10T07:30:25.001Z,12.25
2022-11-10T07:31:25.263Z,12.32
2022-11-10T07:32:24.981Z,12.44
2022-11-10T07:33:24.714Z,12.69
2022-11-10T07:34:24.285Z,13.00
2022-11-10T07:35:24.943Z,13.31
2022-11-10T07:36:24.933Z,13.56
2022-11-10T07:37:24.922Z,13.74
2022-11-10T07:38:25.195Z,13.83
2022-11-10T07:39:24.249Z,13.85
2022-11-10T07:40:25.026Z,14.10
2022-11-10T07:41:24.204Z,14.40
2022-11-10T07:42:24.168Z,14.67
2022-11-10T07:43:25.100Z,14.90
2022-11-10T07:44:24.868Z,15.05
2022-11-10T07:45:24.146Z,15.21
2022-11-10T07:46:24.826Z,15.25
2022-11-10T07:47:24.805Z,15.44
2022-11-10T07:48:24.115Z,15.60
2022-11-10T07:49:24.793Z,15.73
2022-11-10T07:50:24.082Z,15.89
2022-11-10T07:51:24.144Z,16.05
2022-11-10T07:52:24.851Z,16.23
2022-11-10T07:53:25.086Z,16.39
2022-11-10T07:54:24.742Z,16.56
2022-11-10T07:55:24.063Z,16.70
2022-11-10T07:56:24.073Z,16.88
2022-11-10T07:57:24.051Z,17.04
2022-11-10T07:58:24.692Z,17.20
2022-11-10T07:59:23.991Z,17.35
2022-11-10T08:00:23.989Z,17.51
2022-11-10T08:01:24.675Z,17.67
2022-11-10T08:02:24.001Z,17.83
2022-11-10T08:03:24.358Z,17.99
2022-11-10T08:04:23.952Z,18.10
2022-11-10T08:05:24.017Z,18.20
2022-11-10T08:06:24.632Z,18.29
2022-11-10T08:07:24.652Z,18.41
2022-11-10T08:08:23.891Z,18.50
2022-11-10T08:09:24.570Z,18.46
2022-11-10T08:10:23.999Z,18.59
2022-11-10T08:11:24.562Z,18.63
2022-11-10T08:12:23.862Z,18.76
2022-11-10T08:13:24.982Z,18.88
2022-11-10T08:14:23.852Z,19.00
2022-11-10T08:15:23.834Z,19.12
2022-11-10T08:16:24.484Z,19.25
2022-11-10T08:17:23.828Z,19.36
2022-11-10T08:18:24.488Z,19.43
2022-11-10T08:19:24.463Z,19.54
2022-11-10T08:20:24.459Z,19.64
2022-11-10T08:21:24.445Z,19.64
2022-11-10T08:22:25.325Z,19.80
2022-11-10T08:23:24.062Z,19.94
2022-11-10T08:24:24.406Z,20.11
2022-11-10T08:25:23.694Z,20.26
2022-11-10T08:26:23.708Z,20.41
2022-11-10T08:27:24.624Z,20.54
2022-11-10T08:28:24.517Z,20.72
2022-11-10T08:29:25.121Z,20.84
2022-11-10T08:30:24.344Z,20.88
2022-11-10T08:31:24.325Z,20.98
2022-11-10T08:32:24.328Z,21.05
2022-11-10T08:33:24.068Z,21.21
2022-11-10T08:34:24.387Z,21.34
2022-11-10T08:35:24.290Z,21.42
2022-11-10T08:36:24.278Z,21.50
2022-11-10T08:37:23.579Z,21.59
2022-11-10T08:38:23.571Z,21.70
2022-11-10T08:39:38.116Z,21.80
2022-11-10T08:40:25.979Z,21.70
2022-11-10T08:41:23.550Z,21.83
2022-11-10T08:42:24.212Z,21.95
2022-11-10T08:43:23.782Z,22.06
2022-11-10T08:44:23.511Z,22.12
2022-11-10T08:45:24.180Z,22.21
2022-11-10T08:46:24.159Z,22.28
2022-11-10T08:47:24.153Z,22.31
2022-11-10T08:48:23.453Z,22.41
2022-11-10T08:49:23.452Z,22.53
2022-11-10T08:50:24.442Z,22.63
2022-11-10T08:51:23.422Z,22.65
2022-11-10T08:52:23.550Z,22.43
2022-11-10T08:53:24.604Z,22.56
2022-11-10T08:54:23.506Z,22.57
2022-11-10T08:55:23.396Z,22.62
2022-11-10T08:56:23.386Z,22.61
2022-11-10T08:57:24.058Z,22.62
2022-11-10T08:58:24.039Z,22.65
2022-11-10T08:59:23.335Z,22.69
2022-11-10T09:00:23.380Z,22.76
2022-11-10T09:01:24.007Z,22.85
2022-11-10T09:02:23.996Z,22.96
2022-11-10T09:03:24.475Z,23.00
2022-11-10T09:04:24.100Z,23.04
2022-11-10T09:05:23.962Z,23.06
2022-11-10T09:06:23.949Z,23.06
2022-11-10T09:07:23.939Z,23.07
2022-11-10T09:08:23.931Z,23.08
2022-11-10T09:09:23.916Z,23.11
2022-11-10T09:10:23.923Z,23.12
2022-11-10T09:11:23.894Z,23.15
2022-11-10T09:12:23.200Z,23.19
2022-11-10T09:13:28.144Z,23.24
2022-11-10T09:14:24.871Z,23.25
2022-11-10T09:15:23.849Z,23.27
2022-11-10T09:16:23.841Z,23.28
2022-11-10T09:17:23.831Z,23.26
2022-11-10T09:18:23.822Z,23.24
2022-11-10T09:19:23.197Z,23.22
2022-11-10T09:20:23.130Z,23.17
2022-11-10T09:21:23.786Z,23.12
2022-11-10T09:22:23.861Z,23.08
2022-11-10T09:23:24.095Z,23.05
2022-11-10T09:24:25.924Z,23.00
2022-11-10T09:25:24.761Z,22.92
2022-11-10T09:26:23.739Z,22.82
2022-11-10T09:27:23.731Z,22.72
2022-11-10T09:28:23.063Z,22.61
2022-11-10T09:29:23.013Z,22.47
2022-11-10T09:30:23.762Z,22.34
2022-11-10T09:31:23.687Z,22.21
2022-11-10T09:32:23.424Z,22.08
2022-11-10T09:33:24.113Z,21.92
2022-11-10T09:34:24.447Z,21.77
2022-11-10T09:35:23.636Z,21.66
2022-11-10T09:36:22.955Z,21.54
2022-11-10T09:37:24.208Z,21.43
2022-11-10T09:38:23.883Z,21.34
2022-11-10T09:39:22.909Z,21.25
2022-11-10T09:40:23.648Z,21.18
2022-11-10T09:41:23.605Z,21.09
2022-11-10T09:42:23.569Z,21.02
2022-11-10T09:43:23.822Z,20.97
2022-11-10T09:44:23.581Z,20.90
2022-11-10T09:45:23.531Z,20.83
2022-11-10T09:46:23.498Z,20.75
2022-11-10T09:47:50.566Z,20.67
2022-11-10T09:48:25.404Z,20.58
2022-11-10T09:49:24.253Z,20.54
2022-11-10T09:50:23.469Z,20.48
2022-11-10T09:51:23.462Z,20.45
2022-11-10T09:52:23.560Z,20.41
2022-11-10T09:53:22.750Z,20.36
2022-11-10T09:54:22.741Z,20.29
2022-11-10T09:55:22.744Z,20.21
2022-11-10T09:56:23.416Z,20.12
2022-11-10T09:57:23.400Z,20.04
2022-11-10T09:58:23.644Z,19.93
2022-11-10T09:59:23.388Z,19.84
2022-11-10T10:00:23.373Z,19.74
2022-11-10T10:01:23.436Z,19.65
2022-11-10T10:02:23.283Z,19.56
2022-11-10T10:03:23.341Z,19.48
2022-11-10T10:04:22.674Z,19.40
2022-11-10T10:05:22.633Z,19.34
2022-11-10T10:06:23.294Z,19.27
2022-11-10T10:07:23.592Z,19.23
2022-11-10T10:08:22.920Z,19.17
2022-11-10T10:09:22.588Z,19.09
2022-11-10T10:10:22.828Z,19.01
2022-11-10T10:11:23.243Z,18.93
2022-11-10T10:12:23.236Z,18.86
2022-11-10T10:13:23.226Z,18.80
2022-11-10T10:14:23.218Z,18.75
2022-11-10T10:15:25.514Z,18.70
2022-11-10T10:16:23.201Z,18.67
2022-11-10T10:17:26.827Z,18.64
2022-11-10T10:18:22.642Z,18.61
2022-11-10T10:19:22.515Z,18.59
2022-11-10T10:20:22.483Z,18.52
2022-11-10T10:21:22.451Z,18.47
2022-11-10T10:22:22.558Z,18.42
2022-11-10T10:23:40.446Z,18.39
2022-11-10T10:24:24.869Z,18.35
2022-11-10T10:25:22.411Z,18.31
2022-11-10T10:26:23.100Z,18.27
2022-11-10T10:27:22.399Z,18.22
2022-11-10T10:28:22.690Z,18.15
2022-11-10T10:29:22.361Z,18.10
2022-11-10T10:30:22.373Z,18.03
2022-11-10T10:31:22.358Z,17.96
2022-11-10T10:32:22.343Z,17.91
2022-11-10T10:33:22.375Z,17.84
2022-11-10T10:34:23.075Z,17.78
2022-11-10T10:35:22.984Z,17.70
2022-11-10T10:36:22.312Z,17.65
2022-11-10T10:37:22.267Z,17.60
2022-11-10T10:38:22.540Z,17.57
2022-11-10T10:39:22.950Z,17.53
2022-11-10T10:40:23.015Z,17.51
2022-11-10T10:41:23.955Z,17.48
2022-11-10T10:42:22.238Z,17.47
2022-11-10T10:43:22.905Z,17.49
2022-11-10T10:44:23.036Z,17.49
2022-11-10T10:45:22.935Z,17.47
2022-11-10T10:46:22.214Z,17.47
2022-11-10T10:47:22.866Z,17.54
2022-11-10T10:48:23.137Z,17.61
2022-11-10T10:49:28.654Z,17.63
2022-11-10T10:50:24.577Z,17.65
2022-11-10T10:51:23.171Z,17.66
2022-11-10T10:52:22.876Z,17.73
2022-11-10T10:53:22.120Z,17.78
2022-11-10T10:54:22.100Z,17.78
2022-11-10T10:55:22.083Z,17.78
2022-11-10T10:56:22.067Z,17.78
2022-11-10T10:57:22.750Z,17.75
2022-11-10T10:58:23.563Z,17.73
2022-11-10T10:59:23.478Z,17.73
2022-11-10T11:00:22.039Z,17.74
2022-11-10T11:01:22.762Z,17.70
2022-11-10T11:02:22.691Z,17.71
2022-11-10T11:03:22.682Z,17.69
2022-11-10T11:04:22.742Z,17.66
2022-11-10T11:05:23.412Z,17.63
2022-11-10T11:06:21.962Z,17.61
2022-11-10T11:07:21.962Z,17.60
2022-11-10T11:08:22.990Z,17.59
2022-11-10T11:09:21.929Z,17.60
2022-11-10T11:10:22.683Z,17.57
2022-11-10T11:11:23.353Z,17.57
2022-11-10T11:12:21.902Z,17.56
2022-11-10T11:13:21.887Z,17.51
2022-11-10T11:14:21.893Z,17.51
2022-11-10T11:15:21.905Z,17.53
2022-11-10T11:16:21.895Z,17.53
2022-11-10T11:17:21.919Z,17.53
2022-11-10T11:18:22.333Z,17.54
2022-11-10T11:19:21.954Z,17.53
2022-11-10T11:20:21.966Z,17.55
2022-11-10T11:21:22.494Z,17.55
2022-11-10T11:22:22.479Z,17.56
2022-11-10T11:23:21.818Z,17.55
2022-11-10T11:24:22.457Z,17.56
2022-11-10T11:25:21.777Z,17.56
2022-11-10T11:26:21.746Z,17.56
2022-11-10T11:27:21.764Z,17.55
2022-11-10T11:28:22.107Z,17.55
2022-11-10T11:29:21.727Z,17.54
2022-11-10T11:30:21.792Z,17.53
2022-11-10T11:31:21.701Z,17.53
2022-11-10T11:32:22.367Z,17.53
2022-11-10T11:33:22.356Z,17.54
2022-11-10T11:34:22.337Z,17.54
2022-11-10T11:35:21.649Z,17.55
2022-11-10T11:36:21.659Z,17.57
2022-11-10T11:37:21.650Z,17.58
2022-11-10T11:38:22.716Z,17.60
2022-11-10T11:39:22.290Z,17.62
2022-11-10T11:40:22.277Z,17.65
2022-11-10T11:41:21.670Z,17.68
2022-11-10T11:42:21.599Z,17.70
2022-11-10T11:43:22.252Z,17.71
2022-11-10T11:44:22.232Z,17.73
2022-11-10T11:45:22.230Z,17.75
2022-11-10T11:46:22.202Z,17.77
2022-11-10T11:47:21.522Z,17.79
2022-11-10T11:48:22.470Z,17.80
2022-11-10T11:49:22.194Z,17.83
2022-11-10T11:50:22.174Z,17.82
2022-11-10T11:51:22.176Z,17.84
2022-11-10T11:52:21.571Z,17.86
2022-11-10T11:53:21.467Z,17.86
2022-11-10T11:54:22.124Z,17.87
2022-11-10T11:55:22.115Z,17.91
2022-11-10T11:56:21.444Z,17.94
2022-11-10T11:57:21.395Z,17.97
2022-11-10T11:58:22.460Z,17.96
2022-11-10T11:59:22.826Z,17.97
2022-11-10T12:00:21.408Z,17.98
2022-11-10T12:01:22.053Z,18.01
2022-11-10T12:02:21.390Z,18.05
2022-11-10T12:03:21.336Z,18.08
2022-11-10T12:04:21.395Z,18.06
2022-11-10T12:05:22.008Z,18.05
2022-11-10T12:06:22.006Z,18.06
2022-11-10T12:07:21.990Z,18.06
2022-11-10T12:08:22.358Z,18.08
2022-11-10T12:09:21.291Z,18.11
2022-11-10T12:10:21.377Z,18.16
2022-11-10T12:11:21.966Z,18.19
2022-11-10T12:12:21.927Z,18.23
2022-11-10T12:13:21.230Z,18.29
2022-11-10T12:14:21.288Z,18.33
2022-11-10T12:15:21.218Z,18.33
2022-11-10T12:16:21.233Z,18.35
2022-11-10T12:17:21.880Z,18.31
2022-11-10T12:18:22.224Z,18.33
2022-11-10T12:19:21.871Z,18.37
2022-11-10T12:20:21.841Z,18.36
2022-11-10T12:21:21.148Z,18.38
2022-11-10T12:22:22.650Z,18.38
2022-11-10T12:23:21.118Z,18.36
2022-11-10T12:24:21.791Z,18.34
2022-11-10T12:25:21.094Z,18.32
2022-11-10T12:26:21.821Z,18.30
2022-11-10T12:27:21.765Z,18.27
2022-11-10T12:28:22.398Z,18.24
2022-11-10T12:29:21.768Z,18.21
2022-11-10T12:30:21.749Z,18.20
2022-11-10T12:31:21.021Z,18.20
2022-11-10T12:32:21.032Z,18.19
2022-11-10T12:33:21.695Z,18.18
2022-11-10T12:34:21.141Z,18.17
2022-11-10T12:35:20.987Z,18.17
2022-11-10T12:36:20.988Z,18.18
2022-11-10T12:37:26.551Z,18.18
2022-11-10T12:38:23.311Z,18.18
2022-11-10T12:39:21.637Z,18.16
2022-11-10T12:40:21.596Z,18.16
2022-11-10T12:41:21.605Z,18.13
2022-11-10T12:42:22.855Z,18.11
2022-11-10T12:43:21.453Z,18.10
2022-11-10T12:44:21.579Z,18.10
2022-11-10T12:45:20.906Z,18.09
2022-11-10T12:46:22.466Z,18.09
2022-11-10T12:47:21.556Z,18.09
2022-11-10T12:48:21.981Z,18.10
2022-11-10T12:49:20.866Z,18.10
2022-11-10T12:50:21.508Z,18.09
2022-11-10T12:51:21.499Z,18.10
2022-11-10T12:52:21.470Z,18.10